Time;durP1;ratioP1;P1;durP2;ratioP2;P2;SDS_P1;SDS_P2;PMS_P1;PMS_P2;Temp;Humidity;BMP_temperature;BMP_pressure;BME280_temperature;BME280_humidity;BME280_pressure;Samples;Min_cycle;Max_cycle;Signal;HPM_P1;HPM_P2
2022/05/13 00:00:23;;;;;;;5.90;1.10;;;;;;;12.43;72.63;101727.31;10251736;29;20130;-68
2022/05/13 00:05:25;;;;;;;3.65;1.13;;;;;;;12.12;73.64;101725.38;10251617;29;20059;-68
2022/05/13 00:10:27;;;;;;;8.32;1.30;;;;;;;12.74;69.38;101708.22;10250750;29;20525;-68
2022/05/13 00:15:30;;;;;;;5.40;1.38;;;;;;;11.97;74.53;101727.84;10251067;28;20055;-68
2022/05/13 00:20:32;;;;;;;5.15;2.35;;;;;;;11.71;76.46;101722.00;10250415;29;20406;-68
2022/05/13 00:25:36;;;;;;;4.38;1.30;;;;;;;12.11;74.74;101716.66;10250084;28;20406;-68
2022/05/13 00:30:41;;;;;;;4.90;1.00;;;;;;;11.83;73.40;101715.31;10249554;28;20062;-68
2022/05/13 00:35:44;;;;;;;4.47;1.33;;;;;;;11.66;77.92;101713.50;10249262;28;20051;-68
2022/05/13 00:40:46;;;;;;;7.05;2.20;;;;;;;11.82;77.19;101712.78;10249340;28;20051;-68
2022/05/13 00:45:48;;;;;;;6.70;2.45;;;;;;;11.63;78.92;101713.69;10250177;29;20048;-68
2022/05/13 00:50:51;;;;;;;8.57;1.42;;;;;;;11.88;76.18;101707.22;10249833;29;20051;-68
2022/05/13 00:55:54;;;;;;;4.38;1.20;;;;;;;12.11;74.46;101706.16;10249759;29;20061;-68
2022/05/13 01:00:56;;;;;;;4.28;1.38;;;;;;;11.71;76.86;101708.88;10249877;29;20047;-68
2022/05/13 01:06:01;;;;;;;3.20;1.40;;;;;;;11.83;74.89;101706.59;10249554;29;20047;-68
2022/05/13 01:11:10;;;;;;;5.20;1.08;;;;;;;11.86;77.95;101699.44;10247663;28;20514;-68
2022/05/13 01:16:18;;;;;;;4.18;1.10;;;;;;;12.00;76.69;101690.94;10248566;29;20484;-68
2022/05/13 01:21:26;;;;;;;6.15;1.27;;;;;;;11.92;75.83;101698.34;10248482;28;20464;-68
2022/05/13 01:26:30;;;;;;;7.10;1.70;;;;;;;11.88;76.22;101694.13;10248550;28;20047;-68
2022/05/13 01:31:35;;;;;;;7.43;2.05;;;;;;;11.88;77.73;101691.50;10248947;28;20396;-68
2022/05/13 01:36:39;;;;;;;12.02;2.35;;;;;;;12.03;76.26;101690.75;10248948;28;20051;-68
2022/05/13 01:41:41;;;;;;;5.25;1.77;;;;;;;11.86;78.65;101701.22;10248790;28;20057;-68
2022/05/13 01:46:44;;;;;;;6.53;1.92;;;;;;;11.63;80.07;101707.56;10247450;29;20437;-68
2022/05/13 01:51:46;;;;;;;6.32;1.85;;;;;;;11.61;81.15;101707.63;10248576;29;20100;-68
2022/05/13 01:56:48;;;;;;;8.45;2.20;;;;;;;11.78;79.74;101708.59;10248008;29;20054;-68
2022/05/13 02:01:51;;;;;;;9.23;2.35;;;;;;;11.99;77.41;101715.47;10248788;29;20061;-68
2022/05/13 02:06:53;;;;;;;6.43;2.03;;;;;;;12.06;77.41;101706.38;10249529;28;20445;-68
2022/05/13 02:11:55;;;;;;;7.35;2.72;;;;;;;11.78;79.97;101698.94;10254525;29;20491;-68
2022/05/13 02:16:58;;;;;;;5.32;2.70;;;;;;;11.95;78.37;101700.78;10253513;28;20051;-68
2022/05/13 02:22:00;;;;;;;7.72;2.33;;;;;;;12.01;79.18;101700.50;10253883;29;20482;-68
2022/05/13 02:27:03;;;;;;;5.95;2.30;;;;;;;11.66;82.02;101694.31;10254011;28;20055;-68
2022/05/13 02:32:05;;;;;;;8.13;2.60;;;;;;;11.82;80.13;101690.03;10254489;28;20058;-68
2022/05/13 02:37:08;;;;;;;4.93;1.88;;;;;;;11.92;80.52;101684.34;10253699;28;20421;-68
2022/05/13 02:42:10;;;;;;;13.05;2.90;;;;;;;11.69;81.96;101681.88;10254052;29;20058;-68
2022/05/13 02:47:13;;;;;;;10.70;3.13;;;;;;;11.95;82.21;101690.28;10253820;28;20084;-68
2022/05/13 02:52:15;;;;;;;14.07;3.30;;;;;;;11.70;83.00;101686.22;10253901;29;20051;-68
2022/05/13 02:57:18;;;;;;;9.95;3.30;;;;;;;11.94;82.69;101683.34;10253812;29;20055;-68
2022/05/13 03:02:21;;;;;;;6.57;2.97;;;;;;;11.87;82.31;101681.94;10253448;28;20051;-68
2022/05/13 03:07:23;;;;;;;10.68;3.70;;;;;;;11.59;85.63;101687.66;10252553;29;20459;-68
2022/05/13 03:12:26;;;;;;;8.10;3.65;;;;;;;11.63;85.80;101699.69;10253261;29;20055;-68
2022/05/13 03:17:28;;;;;;;8.35;3.22;;;;;;;11.72;82.57;101683.53;10250901;29;20530;-68
2022/05/13 03:22:30;;;;;;;15.32;3.80;;;;;;;11.37;89.28;101667.69;10251229;28;20406;-68
2022/05/13 03:27:33;;;;;;;11.85;4.50;;;;;;;11.73;84.77;101681.75;10251179;28;20059;-68
2022/05/13 03:32:35;;;;;;;5.43;3.25;;;;;;;11.79;85.80;101669.19;10252461;29;20052;-68
2022/05/13 03:37:37;;;;;;;21.08;4.53;;;;;;;11.49;89.61;101676.75;10252190;29;20070;-68
2022/05/13 03:42:40;;;;;;;16.02;4.03;;;;;;;11.92;85.30;101669.47;10251133;28;20051;-68
2022/05/13 03:47:44;;;;;;;11.02;3.75;;;;;;;12.03;83.18;101677.63;10235186;29;20445;-68
2022/05/13 03:52:46;;;;;;;11.88;4.43;;;;;;;11.60;88.41;101673.59;10252616;28;20051;-68
2022/05/13 03:57:48;;;;;;;14.32;4.38;;;;;;;11.79;86.39;101678.84;10251488;29;20052;-68
2022/05/13 04:02:51;;;;;;;10.63;4.85;;;;;;;11.58;90.62;101685.94;10250804;29;20402;-68
2022/05/13 04:18:46;;;;;;;15.25;4.47;;;;;;;11.88;85.26;101689.75;10248991;29;20513;-68
2022/05/13 04:23:53;;;;;;;9.18;4.22;;;;;;;11.79;86.67;101679.69;10249103;29;20055;-68
2022/05/13 04:28:56;;;;;;;10.73;3.97;;;;;;;11.83;87.27;101680.38;10248708;28;20051;-68
2022/05/13 04:33:59;;;;;;;17.50;6.18;;;;;;;11.48;94.21;101690.75;10250732;28;20065;-68
2022/05/13 04:39:02;;;;;;;15.98;5.45;;;;;;;11.40;93.21;101688.53;10248791;28;20485;-68
2022/05/13 04:44:06;;;;;;;20.80;7.28;;;;;;;11.36;95.12;101693.97;10352435;22;20057;-68
2022/05/13 04:49:09;;;;;;;13.02;5.22;;;;;;;11.39;95.98;101699.06;10376946;28;20042;-68
2022/05/13 04:54:11;;;;;;;13.07;6.25;;;;;;;11.64;92.34;101719.75;10375573;28;20053;-68
2022/05/13 04:59:13;;;;;;;16.27;5.75;;;;;;;11.56;92.60;101719.28;10376434;28;20053;-68
2022/05/13 05:04:15;;;;;;;13.02;7.25;;;;;;;11.13;98.99;101719.47;10375728;28;20076;-68
2022/05/13 05:09:18;;;;;;;20.80;6.60;;;;;;;11.27;99.36;101732.78;10375546;28;20049;-68
2022/05/13 05:14:20;;;;;;;16.58;6.65;;;;;;;11.31;100.00;101737.00;10376004;28;20058;-68
2022/05/13 05:19:23;;;;;;;12.48;6.07;;;;;;;11.49;98.86;101742.31;10375217;28;20046;-68
2022/05/13 05:24:25;;;;;;;18.27;6.35;;;;;;;12.21;90.29;101745.94;10375697;28;20046;-68
2022/05/13 05:29:28;;;;;;;19.15;6.00;;;;;;;11.92;95.87;101748.19;10374888;28;20507;-67
2022/05/13 05:34:30;;;;;;;15.70;6.57;;;;;;;11.88;98.10;101757.97;10375420;28;20057;-68
2022/05/13 05:39:32;;;;;;;20.67;7.07;;;;;;;12.07;94.45;101765.00;10357152;28;20067;-67
2022/05/13 05:44:35;;;;;;;16.52;6.68;;;;;;;12.08;94.92;101767.50;10372645;28;20062;-68
2022/05/13 05:49:37;;;;;;;22.40;7.05;;;;;;;12.31;91.26;101777.84;10374431;28;20477;-68
2022/05/13 06:00:08;;;;;;;15.82;5.95;;;;;;;12.42;93.04;101775.50;10374746;28;20061;-68
2022/05/13 06:05:11;;;;;;;12.48;6.78;;;;;;;12.35;96.75;101788.09;10374071;28;20054;-68
2022/05/13 06:10:14;;;;;;;12.10;5.90;;;;;;;12.68;99.51;101794.41;10373975;28;20049;-68
2022/05/13 06:15:17;;;;;;;18.75;6.05;;;;;;;13.05;94.94;101789.88;10374568;28;20100;-68
2022/05/13 06:20:22;;;;;;;17.35;6.82;;;;;;;13.18;92.78;101799.69;10373736;28;20050;-68
2022/05/13 06:25:25;;;;;;;18.75;7.18;;;;;;;13.60;92.30;101800.16;10373730;28;20058;-68
2022/05/13 06:30:30;;;;;;;20.48;7.75;;;;;;;13.52;93.58;101805.81;10373562;28;20049;-68
2022/05/13 06:35:34;;;;;;;17.30;6.18;;;;;;;13.74;88.70;101813.38;10373051;28;20060;-68
2022/05/13 06:40:36;;;;;;;18.58;7.15;;;;;;;13.69;89.02;101815.41;10373193;28;20045;-67
2022/05/13 06:45:39;;;;;;;20.20;8.95;;;;;;;13.65;89.78;101813.03;10374041;28;20076;-68
2022/05/13 06:50:46;;;;;;;19.58;9.02;;;;;;;13.46;94.54;101826.34;10373146;28;20408;-68
2022/05/13 06:55:49;;;;;;;17.77;7.80;;;;;;;14.19;90.30;101826.72;10379497;28;20056;-68
2022/05/13 07:00:52;;;;;;;23.90;8.40;;;;;;;14.08;89.26;101834.38;10363716;28;20056;-68
2022/05/13 07:05:54;;;;;;;15.35;8.60;;;;;;;14.09;85.21;101834.28;10380461;28;20452;-68
2022/05/13 07:10:57;;;;;;;23.92;8.82;;;;;;;14.33;84.46;101823.31;10380148;28;20050;-68
2022/05/13 07:15:59;;;;;;;23.80;9.27;;;;;;;14.72;87.26;101826.41;10379893;28;20054;-68
2022/05/13 07:21:02;;;;;;;23.17;9.13;;;;;;;14.39;89.67;101830.88;10379603;28;20456;-68
2022/05/13 07:26:05;;;;;;;22.55;9.15;;;;;;;14.61;84.78;101827.03;10395337;28;20054;-68
2022/05/13 07:31:07;;;;;;;15.05;8.75;;;;;;;14.40;86.86;101835.19;10361933;28;20048;-69
2022/05/13 07:36:10;;;;;;;19.15;9.00;;;;;;;14.32;88.86;101842.66;10379884;28;20081;-68
2022/05/13 07:41:19;;;;;;;13.68;7.25;;;;;;;14.54;88.06;101850.22;10378613;28;20491;-68
2022/05/13 07:46:21;;;;;;;19.30;8.35;;;;;;;14.43;84.13;101845.56;10379387;28;20058;-68
2022/05/13 07:51:26;;;;;;;19.05;10.07;;;;;;;14.38;85.48;101852.88;10377987;28;20048;-68
2022/05/13 07:56:28;;;;;;;17.60;9.00;;;;;;;14.85;88.74;101856.38;10378942;28;20064;-68
2022/05/13 08:01:31;;;;;;;19.65;8.80;;;;;;;15.37;81.11;101860.34;10378509;28;20056;-68
2022/05/13 08:06:33;;;;;;;19.35;8.27;;;;;;;15.91;81.31;101855.22;10377818;28;20081;-69
2022/05/13 08:11:36;;;;;;;16.27;6.82;;;;;;;15.27;81.68;101864.47;10378413;28;20049;-62
2022/05/13 08:16:41;;;;;;;21.20;8.75;;;;;;;15.72;81.17;101852.88;10378055;28;20455;-62
2022/05/13 08:21:44;;;;;;;16.63;6.45;;;;;;;15.20;81.06;101864.00;10377252;28;20505;-62
2022/05/13 08:26:46;;;;;;;18.65;6.75;;;;;;;15.40;83.53;101860.16;10376573;28;20054;-62
2022/05/13 08:31:50;;;;;;;12.13;4.88;;;;;;;15.96;75.78;101863.72;10377155;28;20121;-62
2022/05/13 08:36:53;;;;;;;9.85;4.70;;;;;;;17.03;68.59;101867.38;10376734;28;20532;-63
2022/05/13 08:42:11;;;;;;;10.13;4.15;;;;;;;16.20;73.05;101864.91;10377318;28;20046;-63
2022/05/13 08:47:23;;;;;;;13.20;4.35;;;;;;;15.49;71.66;101867.50;10376468;28;20452;-63
2022/05/13 08:53:08;;;;;;;10.55;3.30;;;;;;;15.79;72.70;101885.91;10375675;28;20042;-62
2022/05/13 08:58:15;;;;;;;9.85;3.70;;;;;;;15.90;70.50;101873.81;10375818;28;20515;-63
2022/05/13 09:03:38;;;;;;;7.10;2.55;;;;;;;16.65;69.53;101876.91;10376441;28;20049;-63
2022/05/13 09:08:41;;;;;;;7.88;2.15;;;;;;;17.79;63.79;101885.06;10374966;28;20053;-62
2022/05/13 09:14:08;;;;;;;5.72;2.13;;;;;;;17.80;59.89;101880.59;10375389;28;20050;-63
2022/05/13 09:19:35;;;;;;;9.60;2.67;;;;;;;17.44;64.14;101898.13;10374805;28;20048;-63
2022/05/13 09:24:38;;;;;;;11.52;3.03;;;;;;;19.18;62.61;101882.91;10374647;28;20061;-63
2022/05/13 09:30:00;;;;;;;10.90;2.65;;;;;;;18.41;62.93;101874.50;10375480;28;20042;-63
2022/05/13 09:35:22;;;;;;;6.82;2.35;;;;;;;19.47;56.36;101877.16;10374736;28;20504;-63
2022/05/13 09:40:26;;;;;;;8.82;2.45;;;;;;;17.32;64.96;101896.34;10373735;28;20049;-63
2022/05/13 09:45:31;;;;;;;8.38;2.60;;;;;;;18.28;62.73;101893.13;10373974;28;20045;-63
2022/05/13 09:50:37;;;;;;;7.10;2.38;;;;;;;19.19;60.39;101891.72;10373769;28;20056;-63
2022/05/13 09:55:41;;;;;;;8.38;3.50;;;;;;;17.04;62.57;101904.31;10374959;28;20061;-63
2022/05/13 10:00:45;;;;;;;10.18;2.65;;;;;;;17.41;65.39;101909.75;10374093;28;20476;-63
2022/05/13 10:05:55;;;;;;;3.70;2.25;;;;;;;18.42;60.33;101905.38;10372962;28;20050;-63
2022/05/13 10:16:48;;;;;;;5.43;1.98;;;;;;;19.39;58.97;101895.47;10373472;28;20053;-63
2022/05/13 10:22:06;;;;;;;6.93;1.98;;;;;;;19.74;55.61;101892.72;10373278;28;20061;-63
2022/05/13 10:27:24;;;;;;;8.75;2.10;;;;;;;20.74;54.55;101875.84;10375789;28;20050;-63
2022/05/13 10:33:02;;;;;;;4.57;1.70;;;;;;;22.44;49.25;101883.31;10381506;28;20050;-63
2022/05/13 10:38:34;;;;;;;5.05;1.73;;;;;;;19.67;54.27;101891.53;10355771;28;20060;-63
2022/05/13 10:43:46;;;;;;;7.55;1.65;;;;;;;20.48;49.24;101886.81;10380888;28;20065;-62
2022/05/13 10:48:53;;;;;;;6.35;1.48;;;;;;;21.12;47.26;101896.56;10380574;28;20096;-62
2022/05/13 10:54:13;;;;;;;6.53;1.90;;;;;;;20.75;50.06;101901.50;10380290;28;20066;-63
2022/05/13 10:59:54;;;;;;;6.47;1.92;;;;;;;19.23;54.52;101888.72;10381180;28;20057;-62
2022/05/13 11:05:05;;;;;;;5.67;2.53;;;;;;;19.80;53.75;101896.72;10379918;28;20050;-62
2022/05/13 11:10:26;;;;;;;6.68;1.52;;;;;;;23.14;45.83;101883.16;10380131;28;20559;-62
2022/05/13 11:15:32;;;;;;;3.63;1.47;;;;;;;22.51;47.23;101886.28;10380563;28;20049;-63
2022/05/13 11:21:14;;;;;;;3.72;1.73;;;;;;;21.78;49.60;101895.38;10380316;28;20052;-63
2022/05/13 11:26:28;;;;;;;7.50;1.92;;;;;;;24.05;46.39;101888.72;10379175;28;20061;-63
2022/05/13 11:31:47;;;;;;;5.70;1.70;;;;;;;20.92;48.90;101897.41;10378837;28;20132;-63
2022/05/13 11:36:58;;;;;;;8.10;2.13;;;;;;;23.78;46.22;101894.06;10362413;28;20129;-63
2022/05/13 11:42:06;;;;;;;7.03;2.05;;;;;;;22.08;45.21;101890.97;10377834;28;20054;-63
2022/05/13 11:47:17;;;;;;;5.55;1.65;;;;;;;20.13;48.98;101890.53;10378789;28;20498;-63
2022/05/13 11:52:34;;;;;;;3.72;1.30;;;;;;;20.75;49.28;101906.81;10379223;28;20046;-63
2022/05/13 11:57:46;;;;;;;11.38;1.98;;;;;;;19.67;50.30;101903.00;10377937;28;20046;-63
2022/05/13 12:03:07;;;;;;;7.80;1.50;;;;;;;22.47;44.65;101893.72;10378811;28;20052;-64
2022/05/13 12:08:16;;;;;;;9.68;1.75;;;;;;;19.92;48.34;101895.78;10378594;28;20137;-63
2022/05/13 12:13:29;;;;;;;7.45;1.88;;;;;;;20.34;49.18;101908.34;10377205;28;20053;-63
2022/05/13 12:18:55;;;;;;;5.07;2.00;;;;;;;20.28;50.58;101900.91;10377515;28;20077;-63
2022/05/13 12:24:10;;;;;;;4.38;1.80;;;;;;;22.96;45.62;101888.38;10378000;28;20140;-63
2022/05/13 12:29:22;;;;;;;5.75;1.75;;;;;;;21.56;46.17;101912.41;10376612;28;20050;-63
2022/05/13 12:40:06;;;;;;;6.05;1.50;;;;;;;19.55;49.12;101900.44;10376672;28;20056;-63
2022/05/13 12:45:38;;;;;;;5.45;1.33;;;;;;;22.15;48.76;101893.94;10359110;28;20061;-63
2022/05/13 12:50:50;;;;;;;4.70;1.52;;;;;;;22.25;44.42;101889.47;10375687;28;20050;-63
2022/05/13 12:55:53;;;;;;;6.43;2.00;;;;;;;21.55;48.27;101891.22;10375797;28;20050;-61
2022/05/13 13:00:56;;;;;;;6.47;1.70;;;;;;;21.04;47.90;101893.72;10375830;28;20046;-63
2022/05/13 13:06:02;;;;;;;6.15;1.27;;;;;;;21.28;48.10;101893.44;10374608;28;20504;-63
2022/05/13 13:11:25;;;;;;;4.65;1.20;;;;;;;22.28;47.76;101889.22;10390840;28;20060;-63
2022/05/13 13:16:36;;;;;;;3.33;1.45;;;;;;;23.31;42.70;101887.75;10374907;28;20049;-63
2022/05/13 13:21:40;;;;;;;3.63;1.10;;;;;;;24.19;42.51;101887.38;10374552;28;20088;-63
2022/05/13 13:26:45;;;;;;;4.45;1.10;;;;;;;23.03;44.06;101873.44;10374506;28;20060;-63
2022/05/13 13:31:50;;;;;;;5.78;1.10;;;;;;;21.74;46.38;101864.66;10373726;28;20485;-63
2022/05/13 13:36:53;;;;;;;3.65;1.33;;;;;;;21.78;45.01;101871.38;10374311;28;20060;-64
2022/05/13 13:42:18;;;;;;;5.00;1.30;;;;;;;21.58;42.94;101864.31;10374278;28;20058;-63
2022/05/13 13:47:29;;;;;;;1.95;0.90;;;;;;;23.00;42.61;101868.41;10374544;28;20528;-63
2022/05/13 13:52:37;;;;;;;3.63;1.55;;;;;;;21.90;45.17;101856.13;10373900;28;20046;-62
2022/05/13 13:58:08;;;;;;;4.70;1.75;;;;;;;22.07;44.17;101849.28;10373322;28;20504;-63
2022/05/13 14:03:22;;;;;;;3.40;1.73;;;;;;;21.85;45.11;101855.69;10379139;28;20054;-63
2022/05/13 14:08:26;;;;;;;5.32;1.85;;;;;;;22.98;44.39;101859.69;10388234;28;20054;-63
2022/05/13 14:13:36;;;;;;;4.90;1.52;;;;;;;22.50;44.13;101852.59;10386997;28;20056;-64
2022/05/13 14:18:38;;;;;;;3.58;1.30;;;;;;;23.96;41.93;101844.16;10403230;28;20061;-64
2022/05/13 14:23:41;;;;;;;4.43;1.35;;;;;;;24.50;39.80;101844.16;10386727;28;20049;-63
2022/05/13 14:28:50;;;;;;;3.58;1.48;;;;;;;23.68;41.10;101828.09;10386037;28;20042;-64
2022/05/13 14:33:56;;;;;;;6.72;2.03;;;;;;;24.61;41.57;101840.44;10370461;28;20064;-63
2022/05/13 14:44:50;;;;;;;4.82;1.60;;;;;;;24.05;41.06;101834.38;10386201;28;20058;-63
2022/05/13 14:49:57;;;;;;;5.88;1.90;;;;;;;23.91;43.05;101825.88;10387343;28;20045;-64
2022/05/13 14:55:06;;;;;;;4.25;1.05;;;;;;;23.47;41.15;101831.03;10386116;28;20049;-63
2022/05/13 15:00:12;;;;;;;5.57;1.70;;;;;;;23.42;43.34;101840.47;10386004;28;20049;-63
2022/05/13 15:05:24;;;;;;;5.55;1.63;;;;;;;23.91;40.93;101831.22;10386645;28;20408;-63
2022/05/13 15:10:28;;;;;;;5.13;2.15;;;;;;;23.61;42.24;101827.00;10387142;28;20054;-63
2022/05/13 15:15:31;;;;;;;6.82;2.45;;;;;;;24.69;40.26;101832.47;10381726;28;20132;-63
2022/05/13 15:20:33;;;;;;;9.13;1.67;;;;;;;23.05;41.92;101831.44;10380413;28;20052;-63
2022/05/13 15:25:42;;;;;;;6.57;2.13;;;;;;;22.90;42.56;101825.72;10379646;28;20104;-63
2022/05/13 15:30:44;;;;;;;6.63;1.92;;;;;;;;;;10378365;28;20496;-63
2022/05/13 15:35:46;;;;;;;7.18;2.63;;;;;;;22.41;43.81;101823.09;10379893;28;20056;-63
2022/05/13 15:40:49;;;;;;;4.65;2.60;;;;;;;22.82;42.88;101817.56;10377738;28;20405;-63
2022/05/13 15:45:53;;;;;;;8.82;2.50;;;;;;;22.51;44.32;101824.91;10379326;28;20420;-63
2022/05/13 15:56:49;;;;;;;8.07;2.90;;;;;;;22.52;43.83;101815.94;10379148;28;20052;-63
2022/05/13 16:01:51;;;;;;;8.88;3.22;;;;;;;22.16;45.32;101816.47;10350394;28;20401;-63
2022/05/13 16:06:54;;;;;;;6.28;3.28;;;;;;;21.62;45.90;101818.63;10378297;28;20058;-63
2022/05/13 16:11:59;;;;;;;6.63;3.38;;;;;;;21.77;46.66;101816.41;10378454;28;20056;-62
2022/05/13 16:17:07;;;;;;;7.60;3.15;;;;;;;21.57;46.24;101817.31;10376562;28;20132;-63
2022/05/13 16:22:11;;;;;;;9.65;3.63;;;;;;;20.66;47.53;101825.09;10360748;28;20048;-62
2022/05/13 16:27:19;;;;;;;10.70;3.60;;;;;;;21.38;47.91;101829.56;10377012;28;20091;-63
2022/05/13 16:32:27;;;;;;;7.88;4.40;;;;;;;21.44;47.89;101828.19;10376621;28;20104;-63
2022/05/13 16:37:41;;;;;;;9.63;3.20;;;;;;;21.73;48.11;101822.97;10376887;28;20485;-63
2022/05/13 16:42:44;;;;;;;9.13;4.32;;;;;;;20.49;51.19;101831.78;10376967;28;20153;-62
2022/05/13 16:47:46;;;;;;;11.07;2.97;;;;;;;21.59;48.05;101826.03;10375351;28;20405;-63
2022/05/13 16:52:51;;;;;;;12.50;3.58;;;;;;;21.09;49.69;101822.28;10375807;28;20056;-63
2022/05/13 16:57:54;;;;;;;8.23;2.88;;;;;;;20.92;50.52;101817.56;10330532;22;20047;-65
2022/05/13 17:02:57;;;;;;;7.45;3.53;;;;;;;20.18;52.89;101823.69;10289239;28;20503;-64
2022/05/13 17:07:59;;;;;;;7.15;2.88;;;;;;;20.92;51.32;101825.53;10289782;28;20050;-64
2022/05/13 17:19:15;;;;;;;;;;;;;;;20.25;53.42;101835.50;10289013;28;20055;-64
2022/05/13 17:23:45;;;;;;;9.13;3.17;;;;;;;20.11;52.60;101820.69;10288710;28;19922;-64
2022/05/13 17:28:48;;;;;;;12.35;3.05;;;;;;;20.02;52.99;101826.75;10288024;28;20047;-64
2022/05/13 17:33:51;;;;;;;7.55;3.10;;;;;;;19.46;55.18;101822.34;10288436;28;20518;-64
2022/05/13 17:38:55;;;;;;;11.63;3.30;;;;;;;19.25;55.88;101824.88;10287151;28;20058;-64
2022/05/13 17:43:58;;;;;;;11.93;3.53;;;;;;;19.37;55.05;101829.22;10288743;28;20066;-64
2022/05/13 17:49:01;;;;;;;7.43;2.85;;;;;;;19.00;56.94;101829.41;10288633;28;20141;-64
2022/05/13 17:54:04;;;;;;;13.73;3.55;;;;;;;18.96;57.68;101827.13;10287834;28;20417;-64
2022/05/13 17:59:06;;;;;;;9.65;3.63;;;;;;;18.94;58.20;101835.19;10288039;28;20070;-64
2022/05/13 18:04:09;;;;;;;12.65;3.30;;;;;;;18.77;58.19;101851.53;10288255;28;20046;-64
2022/05/13 18:09:11;;;;;;;8.65;3.05;;;;;;;18.62;58.89;101845.56;10286932;28;20062;-64
2022/05/13 18:14:14;;;;;;;9.00;3.35;;;;;;;18.15;60.25;101850.75;10287032;28;20051;-65
2022/05/13 18:19:16;;;;;;;10.85;3.28;;;;;;;18.17;60.83;101860.31;10284896;28;20054;-64
2022/05/13 18:24:19;;;;;;;10.07;2.78;;;;;;;17.69;63.11;101862.00;10286094;28;20055;-64
2022/05/13 18:29:21;;;;;;;15.00;2.80;;;;;;;17.62;63.79;101854.47;10287447;28;20043;-64
2022/05/13 18:34:24;;;;;;;13.57;3.17;;;;;;;17.61;64.61;101854.59;10287435;28;20066;-64
2022/05/13 18:39:26;;;;;;;8.57;2.78;;;;;;;17.27;67.45;101873.66;10286563;28;20074;-64
2022/05/13 18:49:53;;;;;;;15.77;3.10;;;;;;;16.84;69.38;101883.63;10290830;28;20051;-64
2022/05/13 18:54:57;;;;;;;10.90;3.35;;;;;;;16.42;70.74;101880.22;10292605;28;20057;-64
2022/05/13 18:59:59;;;;;;;16.92;3.13;;;;;;;16.50;69.35;101877.91;10291541;28;20047;-63
2022/05/13 19:05:02;;;;;;;14.45;3.63;;;;;;;16.56;69.34;101893.38;10293424;28;20053;-64
2022/05/13 19:10:05;;;;;;;9.60;3.22;;;;;;;16.31;71.25;101891.50;10293510;28;20051;-64
2022/05/13 19:15:08;;;;;;;17.25;3.78;;;;;;;16.10;72.86;101902.44;10293387;28;20055;-63
2022/05/13 19:20:14;;;;;;;7.88;2.67;;;;;;;16.07;73.20;101909.72;10292483;28;20053;-63
2022/05/13 19:25:17;;;;;;;10.20;2.90;;;;;;;15.92;74.12;101906.25;10292105;28;20536;-64
2022/05/13 19:30:19;;;;;;;11.35;3.15;;;;;;;15.93;73.98;101914.09;10292234;28;20421;-64
2022/05/13 19:35:22;;;;;;;10.70;2.70;;;;;;;15.87;73.12;101919.75;10292126;28;20501;-64
2022/05/13 19:40:24;;;;;;;9.45;2.72;;;;;;;15.65;73.35;101940.47;10292147;28;20057;-64
2022/05/13 19:45:27;;;;;;;8.15;2.63;;;;;;;15.38;73.01;101933.25;10275263;28;20063;-63
2022/05/13 19:50:29;;;;;;;9.52;2.95;;;;;;;15.45;71.63;101941.66;10291630;28;20500;-64
2022/05/13 19:55:33;;;;;;;6.22;2.95;;;;;;;15.24;72.41;101940.19;10291843;28;20062;-64
2022/05/13 20:00:36;;;;;;;10.18;3.35;;;;;;;15.09;74.21;101950.81;10290932;28;20055;-63
2022/05/13 20:11:03;;;;;;;16.33;2.42;;;;;;;14.86;74.96;101956.47;10291670;28;20054;-64
2022/05/13 20:16:07;;;;;;;9.63;2.50;;;;;;;14.95;73.32;101955.09;10291206;28;20055;-64
2022/05/13 20:26:31;;;;;;;11.88;2.75;;;;;;;14.73;75.75;101962.53;10290492;28;20379;-64
2022/05/13 20:31:42;;;;;;;11.27;2.22;;;;;;;14.49;76.59;101957.66;10289893;28;20043;-64
2022/05/13 20:36:45;;;;;;;8.25;2.47;;;;;;;14.47;75.43;101964.78;10289867;28;20100;-64
2022/05/13 20:41:48;;;;;;;5.88;1.95;;;;;;;14.25;75.84;101965.97;10289680;28;20485;-64
2022/05/13 20:46:51;;;;;;;10.48;2.40;;;;;;;14.35;74.88;101966.31;10290321;28;20050;-64
2022/05/13 20:51:55;;;;;;;9.00;2.28;;;;;;;14.10;76.38;101975.56;10289438;28;20053;-63
2022/05/13 20:56:57;;;;;;;11.02;2.97;;;;;;;14.24;74.38;101966.03;10289761;28;20070;-64
2022/05/13 21:02:00;;;;;;;7.93;2.15;;;;;;;13.98;76.88;101976.19;10289855;28;20051;-64
2022/05/13 21:07:20;;;;;;;10.93;3.20;;;;;;;13.97;77.04;101969.25;10289561;28;20050;-63
2022/05/13 21:12:22;;;;;;;7.30;3.15;;;;;;;13.83;77.84;101972.59;10288232;28;20054;-64
2022/05/13 21:17:26;;;;;;;6.95;3.30;;;;;;;13.40;81.84;101972.19;10288849;28;20517;-64
2022/05/13 21:22:28;;;;;;;8.25;3.22;;;;;;;13.65;78.53;101966.53;10289121;28;20138;-63
2022/05/13 21:27:31;;;;;;;11.30;3.28;;;;;;;13.41;81.49;101971.25;10289261;28;20053;-63
2022/05/13 21:37:54;;;;;;;8.77;3.20;;;;;;;12.95;85.53;101973.50;10288132;28;20055;-63
2022/05/13 21:42:57;;;;;;;9.80;2.80;;;;;;;12.86;86.29;101976.56;10287702;28;20043;-63
2022/05/13 21:48:00;;;;;;;13.68;4.18;;;;;;;12.81;86.35;101972.41;10266268;28;20133;-63
2022/05/13 21:53:04;;;;;;;7.82;2.78;;;;;;;12.62;89.22;101968.94;10286807;28;20504;-63
2022/05/13 21:58:07;;;;;;;7.82;3.28;;;;;;;12.78;86.34;101977.81;10288188;28;20059;-63
2022/05/13 22:03:13;;;;;;;6.28;2.70;;;;;;;12.51;88.59;101972.09;10286871;28;20050;-63
2022/05/13 22:08:15;;;;;;;8.70;3.95;;;;;;;12.35;89.31;101971.09;10288204;28;20065;-63
2022/05/13 22:13:17;;;;;;;8.88;3.85;;;;;;;12.31;90.01;101975.63;10287977;28;20054;-63
2022/05/13 22:18:20;;;;;;;12.27;3.90;;;;;;;12.02;92.08;101975.19;10287515;28;20066;-63
2022/05/13 22:23:22;;;;;;;11.13;3.28;;;;;;;12.01;92.83;101976.09;10288714;28;20481;-63
2022/05/13 22:28:25;;;;;;;10.13;3.33;;;;;;;11.85;94.63;101968.03;10294027;28;20432;-63
2022/05/13 22:33:27;;;;;;;6.32;3.40;;;;;;;11.75;96.87;101971.09;10294049;28;20047;-63
2022/05/13 22:38:30;;;;;;;11.48;3.25;;;;;;;11.53;98.70;101961.53;10294497;28;20059;-63
2022/05/13 22:43:33;;;;;;;13.73;4.32;;;;;;;11.95;96.14;101960.59;10293502;28;20383;-63
2022/05/13 22:48:36;;;;;;;8.90;3.60;;;;;;;11.88;98.99;101957.41;10293059;28;20051;-63
2022/05/13 22:53:39;;;;;;;6.90;3.20;;;;;;;11.94;97.62;101952.81;10293841;28;20078;-63
2022/05/13 22:58:41;;;;;;;14.23;3.60;;;;;;;12.17;94.86;101954.38;10291816;28;20391;-63
2022/05/13 23:03:44;;;;;;;10.50;3.20;;;;;;;12.31;92.90;101954.63;10293721;28;20063;-63
2022/05/13 23:14:07;;;;;;;11.50;3.10;;;;;;;12.73;87.38;101950.91;10293347;28;20051;-63
2022/05/13 23:19:09;;;;;;;8.95;3.20;;;;;;;12.81;87.06;101954.00;10293072;28;20059;-64
2022/05/13 23:24:13;;;;;;;8.88;3.30;;;;;;;12.90;85.21;101963.22;10292447;28;20482;-63
2022/05/13 23:29:16;;;;;;;13.43;3.30;;;;;;;12.81;83.11;101963.69;10291196;28;20478;-63
2022/05/13 23:34:18;;;;;;;15.90;3.22;;;;;;;12.60;87.52;101960.28;10291381;28;20055;-63
2022/05/13 23:39:20;;;;;;;12.20;3.47;;;;;;;12.57;86.58;101956.00;10291960;28;20055;-63
2022/05/13 23:44:23;;;;;;;11.80;3.65;;;;;;;12.54;88.20;101953.56;10292385;28;20054;-63
2022/05/13 23:49:25;;;;;;;9.55;3.15;;;;;;;12.66;84.22;101957.38;10290999;28;20066;-63
2022/05/13 23:59:48;;;;;;;8.73;2.70;;;;;;;12.99;83.39;101964.53;10291039;28;20063;-63
